Time;durP1;ratioP1;P1;durP2;ratioP2;P2;SDS_P1;SDS_P2;PMS_P1;PMS_P2;Temp;Humidity;BMP_temperature;BMP_pressure;BME280_temperature;BME280_humidity;BME280_pressure;Samples;Min_cycle;Max_cycle;Signal;HPM_P1;HPM_P2
2022/12/02 00:00:52;;;;;;;38.90;18.37;;;3.00;99.90;;;;;;6300451;22;20412;-76
2022/12/02 00:03:21;;;;;;;31.63;17.00;;;2.90;99.90;;;;;;6300488;22;20435;-76
2022/12/02 00:05:51;;;;;;;47.23;22.53;;;2.90;99.90;;;;;;6300587;22;20741;-76
2022/12/02 00:08:21;;;;;;;34.80;16.93;;;3.00;99.90;;;;;;6301617;22;20948;-78
2022/12/02 00:10:49;;;;;;;39.90;20.70;;;3.00;99.90;;;;;;6300799;22;20521;-77
2022/12/02 00:13:22;;;;;;;40.57;18.13;;;2.90;99.90;;;;;;6301240;22;20404;-76
2022/12/02 00:15:58;;;;;;;38.13;20.00;;;2.90;99.90;;;;;;6302121;22;20430;-76
2022/12/02 00:18:26;;;;;;;34.23;17.47;;;3.10;99.90;;;;;;6303960;22;20427;-76
2022/12/02 00:20:53;;;;;;;38.60;17.43;;;3.40;99.90;;;;;;6304124;22;20461;-76
2022/12/02 00:23:20;;;;;;;38.33;18.87;;;3.20;99.90;;;;;;6303263;22;20738;-77
2022/12/02 00:25:53;;;;;;;42.37;19.63;;;3.10;99.90;;;;;;6302984;22;20415;-77
2022/12/02 00:28:20;;;;;;;36.87;18.17;;;3.10;99.90;;;;;;6303728;22;20391;-76
2022/12/02 00:30:47;;;;;;;42.70;20.20;;;3.10;99.90;;;;;;6302943;22;20389;-76
2022/12/02 00:33:17;;;;;;;42.40;20.30;;;2.90;99.90;;;;;;6303416;22;20409;-77
2022/12/02 00:35:46;;;;;;;45.60;22.83;;;2.80;99.90;;;;;;6303103;22;20408;-76
2022/12/02 00:38:13;;;;;;;47.17;20.00;;;2.70;99.90;;;;;;6305081;22;20400;-77
2022/12/02 00:40:40;;;;;;;46.13;20.83;;;2.60;99.90;;;;;;6306186;22;20409;-76
2022/12/02 00:48:42;;;;;;;40.77;18.27;;;2.60;99.90;;;;;;6304475;22;20696;-76
2022/12/02 00:51:08;;;;;;;42.10;18.73;;;2.60;99.90;;;;;;6303578;22;20401;-76
2022/12/02 00:53:35;;;;;;;35.77;18.27;;;2.60;99.90;;;;;;6303833;22;20782;-77
2022/12/02 00:56:02;;;;;;;42.47;20.50;;;2.60;99.90;;;;;;6303893;22;20438;-76
2022/12/02 00:58:37;;;;;;;41.37;21.70;;;2.60;99.90;;;;;;6303150;22;21038;-76
2022/12/02 01:01:04;;;;;;;39.03;18.47;;;2.70;99.90;;;;;;6303526;22;20409;-77
2022/12/02 01:03:31;;;;;;;41.73;18.67;;;2.70;99.90;;;;;;6303033;22;20963;-79
2022/12/02 01:05:59;;;;;;;36.23;18.83;;;2.80;99.90;;;;;;6303384;22;20416;-77
2022/12/02 01:08:27;;;;;;;43.07;22.00;;;2.70;99.90;;;;;;6306436;22;20905;-77
2022/12/02 01:10:55;;;;;;;31.47;18.83;;;2.70;99.90;;;;;;6306128;22;20432;-75
2022/12/02 01:13:23;;;;;;;38.00;20.27;;;2.70;99.90;;;;;;6307697;22;20466;-75
2022/12/02 01:15:50;;;;;;;36.17;19.47;;;2.70;99.90;;;;;;6308851;22;20451;-75
2022/12/02 01:18:17;;;;;;;47.60;19.50;;;2.70;99.90;;;;;;6309819;22;20408;-75
2022/12/02 01:20:44;;;;;;;41.97;21.70;;;2.70;99.90;;;;;;6313365;22;20405;-75
2022/12/02 01:23:13;;;;;;;33.90;20.07;;;2.60;99.90;;;;;;6307777;22;20461;-77
2022/12/02 01:25:40;;;;;;;38.83;20.37;;;2.80;99.90;;;;;;6305274;22;20492;-75
2022/12/02 01:28:16;;;;;;;41.63;20.97;;;2.80;99.90;;;;;;6308083;22;20404;-76
2022/12/02 01:30:43;;;;;;;39.47;20.93;;;2.90;99.90;;;;;;6311765;22;20442;-77
2022/12/02 01:33:10;;;;;;;47.63;19.23;;;2.60;99.90;;;;;;6314231;22;20409;-78
2022/12/02 01:35:37;;;;;;;54.77;19.63;;;2.60;99.90;;;;;;6305814;22;21106;-77
2022/12/02 01:38:04;;;;;;;44.63;21.30;;;2.70;99.90;;;;;;6304947;22;20464;-75
2022/12/02 02:18:36;;;;;;;40.43;21.60;;;3.20;99.90;;;;;;6270524;22;20448;-84
2022/12/02 02:21:04;;;;;;;43.17;21.60;;;3.10;99.90;;;;;;6272274;22;20406;-85
2022/12/02 02:23:32;;;;;;;30.83;17.93;;;3.20;99.90;;;;;;6271600;22;20408;-86
2022/12/02 02:26:02;;;;;;;32.87;17.23;;;3.60;99.90;;;;;;6271488;22;20471;-86
2022/12/02 02:28:29;;;;;;;31.77;18.30;;;3.10;99.90;;;;;;6271999;22;20733;-86
2022/12/02 02:30:58;;;;;;;33.90;18.63;;;3.10;99.90;;;;;;6272850;22;20464;-86
2022/12/02 02:33:27;;;;;;;38.53;18.93;;;3.10;99.90;;;;;;6275561;22;20418;-85
2022/12/02 02:35:55;;;;;;;42.73;19.67;;;3.20;99.90;;;;;;6273782;22;20470;-86
2022/12/02 02:41:07;;;;;;;36.90;19.57;;;3.20;99.90;;;;;;6270917;22;20405;-87
2022/12/02 02:43:36;;;;;;;40.43;19.47;;;3.20;99.90;;;;;;6271173;22;20409;-86
2022/12/02 02:46:04;;;;;;;37.57;19.00;;;3.10;99.90;;;;;;6270654;22;20413;-86
2022/12/02 02:48:36;;;;;;;41.50;20.90;;;3.10;99.90;;;;;;6270602;22;20409;-86
2022/12/02 02:51:04;;;;;;;40.63;21.23;;;3.20;99.90;;;;;;6270714;22;20425;-85
2022/12/02 02:53:31;;;;;;;38.57;20.40;;;3.20;99.90;;;;;;6270883;22;20783;-86
2022/12/02 02:55:58;;;;;;;36.03;20.43;;;3.20;99.90;;;;;;6270836;22;20401;-86
2022/12/02 02:58:29;;;;;;;38.13;21.00;;;3.20;99.90;;;;;;6270772;22;20475;-88
2022/12/02 03:00:59;;;;;;;36.87;18.97;;;3.10;99.90;;;;;;6270791;22;20482;-87
2022/12/02 03:03:29;;;;;;;34.67;20.67;;;3.10;99.90;;;;;;6270684;22;20741;-88
2022/12/02 03:05:58;;;;;;;36.87;19.83;;;3.10;99.90;;;;;;6270713;22;20665;-85
2022/12/02 03:08:27;;;;;;;35.70;18.53;;;3.10;99.90;;;;;;6270660;22;20473;-86
2022/12/02 03:10:56;;;;;;;36.90;19.77;;;3.20;99.90;;;;;;6296334;22;20437;-86
2022/12/02 03:13:29;;;;;;;39.70;21.80;;;3.20;99.90;;;;;;6302195;22;20405;-86
2022/12/02 03:15:56;;;;;;;35.77;19.77;;;3.20;99.90;;;;;;6301945;22;20400;-86
2022/12/02 03:18:24;;;;;;;37.27;19.47;;;3.20;99.90;;;;;;6301529;22;20410;-86
2022/12/02 03:20:51;;;;;;;40.23;19.93;;;3.20;99.90;;;;;;6302364;22;20476;-87
2022/12/02 03:23:23;;;;;;;37.20;19.90;;;3.20;99.90;;;;;;6301620;22;20896;-86
2022/12/02 03:25:50;;;;;;;31.83;19.93;;;3.20;99.90;;;;;;6301516;22;21094;-85
2022/12/02 03:28:18;;;;;;;39.93;21.07;;;3.20;99.90;;;;;;6301621;22;20495;-85
2022/12/02 03:30:47;;;;;;;40.50;20.67;;;3.20;99.90;;;;;;6301888;22;20410;-86
2022/12/02 03:33:14;;;;;;;38.83;20.40;;;3.20;99.90;;;;;;6301816;22;20405;-86
2022/12/02 03:35:41;;;;;;;40.60;19.27;;;3.20;99.90;;;;;;6301540;22;20419;-85
2022/12/02 03:38:11;;;;;;;44.60;20.17;;;3.20;99.90;;;;;;6302166;22;20420;-88
2022/12/02 03:40:39;;;;;;;38.40;21.30;;;3.20;99.90;;;;;;6302177;22;20451;-86
2022/12/02 03:43:06;;;;;;;38.43;20.60;;;3.10;99.90;;;;;;6301521;22;20413;-85
2022/12/02 03:45:34;;;;;;;42.63;19.90;;;3.00;99.90;;;;;;6302332;22;20408;-84
2022/12/02 03:48:05;;;;;;;38.13;20.40;;;3.10;99.90;;;;;;6302116;22;20416;-85
2022/12/02 03:50:37;;;;;;;37.80;22.23;;;3.10;99.90;;;;;;6302357;22;20454;-86
2022/12/02 03:53:05;;;;;;;39.33;21.77;;;3.10;99.90;;;;;;6303358;22;20446;-86
2022/12/02 03:55:32;;;;;;;37.63;20.97;;;3.10;99.90;;;;;;6304530;22;21078;-86
2022/12/02 03:58:03;;;;;;;34.93;19.97;;;3.10;99.90;;;;;;6327405;22;20748;-87
2022/12/02 04:00:30;;;;;;;41.10;21.97;;;3.10;99.90;;;;;;6327388;22;20463;-88
2022/12/02 04:02:57;;;;;;;44.90;20.17;;;3.20;99.90;;;;;;6304191;22;20410;-86
2022/12/02 04:05:29;;;;;;;42.77;20.53;;;3.20;99.90;;;;;;6303304;22;20408;-87
2022/12/02 04:07:56;;;;;;;45.57;22.53;;;3.20;99.90;;;;;;6304255;22;20467;-86
2022/12/02 04:10:23;;;;;;;41.13;21.70;;;3.20;99.90;;;;;;6303961;22;20427;-86
2022/12/02 04:12:50;;;;;;;38.87;22.10;;;3.20;99.90;;;;;;6303297;22;20728;-86
2022/12/02 04:15:19;;;;;;;36.90;21.60;;;3.30;99.90;;;;;;6303568;22;20465;-86
2022/12/02 04:17:46;;;;;;;37.17;20.83;;;3.20;99.90;;;;;;6303532;22;20604;-86
2022/12/02 04:20:13;;;;;;;41.30;20.80;;;3.20;99.90;;;;;;6302783;22;20475;-86
2022/12/02 04:22:45;;;;;;;43.53;20.37;;;3.20;99.90;;;;;;6304938;22;20960;-85
2022/12/02 04:25:12;;;;;;;41.70;21.90;;;3.20;99.90;;;;;;6304329;22;20391;-87
2022/12/02 04:27:39;;;;;;;42.20;20.43;;;3.10;99.90;;;;;;6306268;22;20777;-87
2022/12/02 04:30:07;;;;;;;42.80;21.13;;;3.10;99.90;;;;;;6315592;22;20466;-87
2022/12/02 04:32:34;;;;;;;36.27;20.67;;;3.10;99.90;;;;;;6303868;22;20427;-86
2022/12/02 04:35:01;;;;;;;44.30;22.20;;;3.10;99.90;;;;;;6308875;22;20412;-86
2022/12/02 04:37:28;;;;;;;41.43;21.33;;;3.10;99.90;;;;;;6312176;22;20470;-87
2022/12/02 04:39:56;;;;;;;38.83;20.93;;;3.10;99.90;;;;;;6311940;22;20757;-85
2022/12/02 04:42:29;;;;;;;39.27;19.83;;;3.30;99.90;;;;;;6314589;22;20399;-86
2022/12/02 04:44:56;;;;;;;44.13;21.83;;;3.20;99.90;;;;;;6307429;22;20451;-86
2022/12/02 04:47:23;;;;;;;38.20;20.20;;;3.20;99.90;;;;;;6303151;22;20936;-85
2022/12/02 04:49:50;;;;;;;43.23;22.27;;;3.20;99.90;;;;;;6303172;22;20732;-86
2022/12/02 04:52:17;;;;;;;49.17;24.07;;;3.10;99.90;;;;;;6303842;22;20412;-84
2022/12/02 04:54:48;;;;;;;43.97;21.50;;;2.90;99.90;;;;;;6302811;22;20563;-85
2022/12/02 04:57:17;;;;;;;39.80;20.40;;;3.10;99.90;;;;;;6302734;22;20397;-86
2022/12/02 04:59:43;;;;;;;51.57;23.40;;;2.90;99.90;;;;;;6303527;22;20498;-86
2022/12/02 05:02:10;;;;;;;42.10;22.53;;;3.10;99.90;;;;;;6302477;22;20882;-87
2022/12/02 05:04:37;;;;;;;37.10;19.63;;;3.10;99.90;;;;;;6302561;22;20422;-86
2022/12/02 05:07:12;;;;;;;43.17;24.10;;;3.10;99.90;;;;;;6302813;22;20894;-84
2022/12/02 05:09:39;;;;;;;45.10;22.10;;;3.10;99.90;;;;;;6302882;22;20451;-85
2022/12/02 05:12:06;;;;;;;40.87;22.07;;;3.20;99.90;;;;;;6302137;22;20428;-81
2022/12/02 05:14:34;;;;;;;50.37;22.40;;;3.20;99.90;;;;;;6302822;22;20975;-85
2022/12/02 05:17:01;;;;;;;42.70;20.57;;;3.20;99.90;;;;;;6302976;22;20463;-87
2022/12/02 05:22:09;;;;;;;40.77;19.93;;;3.10;99.90;;;;;;6302407;22;20416;-85
2022/12/02 05:24:36;;;;;;;38.20;20.30;;;3.10;99.90;;;;;;6303182;22;20409;-85
2022/12/02 05:27:03;;;;;;;42.70;24.23;;;3.20;99.90;;;;;;6302690;22;20436;-84
2022/12/02 05:29:37;;;;;;;50.67;23.60;;;3.20;99.90;;;;;;6302963;22;20924;-85
2022/12/02 05:32:06;;;;;;;47.93;22.70;;;3.10;99.90;;;;;;6302905;22;20387;-83
2022/12/02 05:34:33;;;;;;;42.20;21.90;;;3.10;99.90;;;;;;6302891;22;20727;-88
2022/12/02 05:37:00;;;;;;;44.00;24.40;;;3.10;99.90;;;;;;6302466;22;20439;-83
2022/12/02 05:39:27;;;;;;;41.60;20.37;;;3.20;99.90;;;;;;6302843;22;20408;-90
2022/12/02 05:42:00;;;;;;;47.87;22.90;;;3.10;99.90;;;;;;6303924;22;20443;-90
2022/12/02 05:44:36;;;;;;;51.00;23.87;;;3.20;99.90;;;;;;6302784;22;20396;-82
2022/12/02 05:47:11;;;;;;;47.57;22.53;;;3.00;99.90;;;;;;6302622;22;20393;-79
2022/12/02 05:49:38;;;;;;;50.27;23.93;;;2.80;99.90;;;;;;6303542;22;20396;-78
2022/12/02 05:52:24;;;;;;;56.13;23.67;;;2.60;99.90;;;;;;6311349;22;20422;-77
2022/12/02 05:54:53;;;;;;;62.80;26.77;;;2.50;99.90;;;;;;6315213;22;20389;-77
2022/12/02 05:57:23;;;;;;;52.23;25.10;;;2.50;99.90;;;;;;6315426;22;20411;-80
2022/12/02 05:59:51;;;;;;;57.30;24.37;;;2.50;99.90;;;;;;6313339;22;20435;-78
2022/12/02 06:02:26;;;;;;;60.13;26.87;;;2.50;99.90;;;;;;6315115;22;20412;-78
2022/12/02 06:04:55;;;;;;;68.83;22.10;;;2.50;99.90;;;;;;6314223;22;20449;-77
2022/12/02 06:07:23;;;;;;;55.70;27.50;;;2.50;99.90;;;;;;6312330;22;20456;-79
2022/12/02 06:09:53;;;;;;;51.37;23.93;;;2.00;99.90;;;;;;6287891;22;20440;-80
2022/12/02 06:12:23;;;;;;;53.13;23.60;;;2.50;99.90;;;;;;6302334;22;20802;-75
2022/12/02 06:15:02;;;;;;;48.87;25.50;;;2.50;99.90;;;;;;6306256;22;20400;-79
2022/12/02 06:31:44;;;;;;;50.87;23.50;;;2.40;99.90;;;;;;6277128;22;20501;-76
2022/12/02 06:34:36;;;;;;;49.30;25.37;;;2.40;99.90;;;;;;6281577;22;20409;-75
2022/12/02 06:37:13;;;;;;;50.87;24.73;;;2.30;99.90;;;;;;6271852;22;20979;-75
2022/12/02 06:39:40;;;;;;;57.23;23.33;;;2.30;99.90;;;;;;6271293;22;20479;-75
2022/12/02 06:42:15;;;;;;;70.00;26.90;;;2.40;99.90;;;;;;6269781;22;20730;-75
2022/12/02 06:47:53;;;;;;;57.70;24.77;;;2.40;99.90;;;;;;6270648;22;20462;-75
2022/12/02 06:50:29;;;;;;;56.70;24.30;;;2.40;99.90;;;;;;6270423;22;20436;-75
2022/12/02 07:01:21;;;;;;;64.67;26.40;;;2.30;99.90;;;;;;6284266;22;20536;-78
2022/12/02 07:04:04;;;;;;;70.00;27.77;;;2.90;99.90;;;;;;6289548;22;20393;-78
2022/12/02 07:06:36;;;;;;;52.20;25.77;;;1.70;99.90;;;;;;6294984;22;20452;-81
2022/12/02 07:09:22;;;;;;;49.23;25.07;;;2.30;99.90;;;;;;6292836;22;20848;-79
2022/12/02 07:33:05;;;;;;;52.83;23.63;;;2.40;99.90;;;;;;6303225;22;20439;-81
2022/12/02 07:35:47;;;;;;;55.77;24.80;;;2.40;99.90;;;;;;6302763;22;20395;-80
2022/12/02 07:41:03;;;;;;;62.07;26.23;;;2.40;99.90;;;;;;6297163;22;20514;-81
2022/12/02 07:54:53;;;;;;;42.43;21.70;;;2.50;99.90;;;;;;6293054;22;20441;-81
2022/12/02 08:00:10;;;;;;;46.43;22.80;;;2.50;99.90;;;;;;6301915;22;20439;-80
2022/12/02 08:02:40;;;;;;;42.50;21.47;;;2.50;99.90;;;;;;6305546;22;20416;-80
2022/12/02 08:05:08;;;;;;;68.17;25.90;;;2.60;99.90;;;;;;6293023;22;20429;-76
2022/12/02 08:07:34;;;;;;;47.70;22.93;;;2.50;99.90;;;;;;6289908;22;20404;-77
2022/12/02 08:10:03;;;;;;;53.73;28.67;;;2.50;99.90;;;;;;6263143;22;20449;-75
2022/12/02 08:12:41;;;;;;;60.33;25.53;;;2.50;99.90;;;;;;6251979;22;21023;-77
2022/12/02 08:15:34;;;;;;;58.80;24.93;;;2.40;99.90;;;;;;6265465;23;20413;-78
2022/12/02 08:18:01;;;;;;;57.43;23.97;;;2.40;99.90;;;;;;6249636;23;20417;-76
2022/12/02 08:20:29;;;;;;;53.10;25.00;;;2.40;99.90;;;;;;6243235;23;20453;-75
2022/12/02 08:22:56;;;;;;;59.00;25.40;;;2.40;99.90;;;;;;6245288;23;20416;-73
2022/12/02 08:25:30;;;;;;;63.00;25.93;;;2.40;99.90;;;;;;6244679;23;20488;-77
2022/12/02 08:28:02;;;;;;;51.77;24.47;;;2.40;99.90;;;;;;6244132;23;20394;-75
2022/12/02 08:30:29;;;;;;;59.87;25.67;;;2.30;99.90;;;;;;6255699;22;20467;-77
2022/12/02 08:45:23;;;;;;;55.20;26.13;;;2.60;99.90;;;;;;6290923;22;20511;-81
2022/12/02 08:51:01;;;;;;;54.90;23.30;;;2.90;99.90;;;;;;6294485;22;20408;-81
2022/12/02 08:53:44;;;;;;;49.20;22.20;;;2.70;99.90;;;;;;6291062;22;20428;-79
2022/12/02 08:56:16;;;;;;;49.70;21.27;;;2.60;99.90;;;;;;6295735;22;20395;-80
2022/12/02 08:58:45;;;;;;;55.07;23.53;;;3.40;99.90;;;;;;6300997;22;20456;-79
2022/12/02 09:01:46;;;;;;;47.17;23.67;;;2.30;99.90;;;;;;6295973;22;20492;-80
2022/12/02 09:04:27;;;;;;;46.00;21.77;;;2.50;99.90;;;;;;6291347;22;20443;-79
2022/12/02 09:06:54;;;;;;;48.13;23.93;;;2.70;99.90;;;;;;6291986;22;20408;-80
2022/12/02 09:09:21;;;;;;;58.53;23.90;;;2.70;99.90;;;;;;6290646;22;20431;-78
2022/12/02 09:11:53;;;;;;;50.67;25.63;;;2.80;99.90;;;;;;6304364;22;20407;-85
2022/12/02 09:14:20;;;;;;;46.47;22.83;;;2.90;99.90;;;;;;6302954;22;20798;-82
2022/12/02 09:16:49;;;;;;;58.53;23.60;;;2.90;99.90;;;;;;6304661;22;20405;-80
2022/12/02 09:19:16;;;;;;;48.77;19.50;;;2.70;99.90;;;;;;6312427;22;20447;-84
2022/12/02 09:21:43;;;;;;;44.77;22.47;;;2.90;99.90;;;;;;6302479;22;20532;-84
2022/12/02 09:24:10;;;;;;;50.17;25.43;;;3.10;99.90;;;;;;6310182;22;20400;-81
2022/12/02 09:26:37;;;;;;;45.40;21.10;;;3.10;99.90;;;;;;6303245;22;20409;-79
2022/12/02 09:29:03;;;;;;;39.13;21.90;;;3.00;99.90;;;;;;6303209;22;20404;-79
2022/12/02 09:31:30;;;;;;;45.50;20.10;;;3.20;99.90;;;;;;6302797;22;20458;-84
2022/12/02 09:33:59;;;;;;;38.97;20.10;;;3.60;99.90;;;;;;6302261;22;20440;-85
2022/12/02 09:36:26;;;;;;;46.27;22.87;;;4.00;99.90;;;;;;6302461;22;20404;-85
2022/12/02 09:38:59;;;;;;;35.53;20.27;;;4.10;99.90;;;;;;6302093;22;20436;-84
2022/12/02 09:41:27;;;;;;;40.47;19.70;;;4.30;99.90;;;;;;6302251;22;20444;-82
2022/12/02 09:43:54;;;;;;;44.50;24.10;;;4.00;99.90;;;;;;6302978;22;20442;-82
2022/12/02 09:46:22;;;;;;;38.43;20.50;;;3.60;99.90;;;;;;6302537;22;20412;-82
2022/12/02 09:48:49;;;;;;;48.80;22.77;;;4.00;99.90;;;;;;6302851;22;20415;-86
2022/12/02 09:51:17;;;;;;;41.33;19.03;;;3.90;99.90;;;;;;6302122;22;20404;-85
2022/12/02 09:53:45;;;;;;;38.90;19.60;;;4.10;99.90;;;;;;6302012;22;20397;-84
2022/12/02 09:56:21;;;;;;;44.43;19.33;;;4.10;99.90;;;;;;6302105;22;20465;-84
2022/12/02 09:58:50;;;;;;;38.17;17.50;;;4.20;99.90;;;;;;6302029;22;20431;-85
2022/12/02 10:01:17;;;;;;;35.30;19.90;;;3.80;99.90;;;;;;6302054;22;20551;-83
2022/12/02 10:03:46;;;;;;;38.87;19.57;;;3.70;99.90;;;;;;6302668;22;20451;-86
2022/12/02 10:06:17;;;;;;;35.93;18.43;;;3.80;99.90;;;;;;6301870;22;20404;-85
2022/12/02 10:08:45;;;;;;;34.80;18.10;;;4.00;99.90;;;;;;6302099;22;20428;-84
2022/12/02 10:11:21;;;;;;;47.33;25.33;;;3.70;99.90;;;;;;6315951;22;20434;-83
2022/12/02 10:13:57;;;;;;;36.80;18.23;;;4.40;99.90;;;;;;6302378;22;20412;-86
2022/12/02 10:16:24;;;;;;;37.70;18.60;;;3.70;99.90;;;;;;6302425;22;20395;-82
2022/12/02 10:18:51;;;;;;;29.23;18.60;;;3.80;99.90;;;;;;6302046;22;20408;-81
2022/12/02 10:21:18;;;;;;;38.00;18.87;;;3.80;99.90;;;;;;6301343;22;20451;-86
2022/12/02 10:23:57;;;;;;;36.83;18.20;;;3.80;99.90;;;;;;6301442;22;20405;-85
2022/12/02 10:26:33;;;;;;;33.00;18.40;;;3.80;99.90;;;;;;6302025;22;20467;-86
2022/12/02 10:29:07;;;;;;;40.20;18.50;;;3.70;99.90;;;;;;6302728;22;20454;-83
2022/12/02 10:31:34;;;;;;;29.77;16.43;;;3.80;99.90;;;;;;6302774;22;20388;-84
2022/12/02 10:34:05;;;;;;;27.47;14.20;;;3.90;99.90;;;;;;6302376;22;20925;-86
2022/12/02 10:36:34;;;;;;;24.23;11.80;;;3.40;99.90;;;;;;6302898;22;20412;-83
2022/12/02 10:39:24;;;;;;;26.33;13.77;;;3.50;99.90;;;;;;6303177;22;20404;-84
2022/12/02 10:42:12;;;;;;;19.27;12.13;;;3.40;99.90;;;;;;6302302;22;20448;-86
2022/12/02 10:44:42;;;;;;;24.73;12.73;;;3.50;99.90;;;;;;6302247;22;20454;-86
2022/12/02 10:47:16;;;;;;;27.83;14.37;;;3.90;99.90;;;;;;6302290;22;20494;-86
2022/12/02 10:52:29;;;;;;;31.13;15.67;;;4.20;99.90;;;;;;6301955;22;20436;-85
2022/12/02 10:58:55;;;;;;;26.70;15.43;;;4.30;99.90;;;;;;6301481;22;20401;-77
2022/12/02 11:01:22;;;;;;;31.30;16.90;;;4.10;99.90;;;;;;6299824;22;20448;-79
2022/12/02 11:03:49;;;;;;;25.23;14.23;;;4.20;99.90;;;;;;6301482;22;20446;-84
2022/12/02 11:06:19;;;;;;;22.03;13.70;;;4.20;99.90;;;;;;6302036;22;20404;-81
2022/12/02 11:08:47;;;;;;;27.00;14.23;;;4.20;99.90;;;;;;6301360;22;20389;-83
2022/12/02 11:11:16;;;;;;;21.73;12.63;;;4.20;99.90;;;;;;6302462;22;20428;-87
2022/12/02 11:13:55;;;;;;;27.00;14.50;;;3.60;99.90;;;;;;6305759;22;20482;-86
2022/12/02 11:16:46;;;;;;;28.80;13.10;;;3.40;99.90;;;;;;6317960;22;20388;-82
2022/12/02 11:19:45;;;;;;;26.00;13.70;;;3.00;99.90;;;;;;6334770;22;20373;-81
2022/12/02 11:23:00;;;;;;;29.00;14.60;;;3.00;99.90;;;;;;6335807;22;20450;-81
2022/12/02 11:25:49;;;;;;;30.40;14.97;;;3.10;99.90;;;;;;6183133;23;20406;-81
2022/12/02 11:28:59;;;;;;;21.80;13.40;;;3.10;99.90;;;;;;6336100;22;20924;-82
2022/12/02 11:31:27;;;;;;;24.37;13.67;;;3.20;99.90;;;;;;6324655;22;20928;-83
2022/12/02 11:34:23;;;;;;;25.30;14.77;;;3.30;99.90;;;;;;6304824;22;20469;-85
2022/12/02 11:37:36;;;;;;;23.50;14.30;;;3.30;99.90;;;;;;6312700;22;20417;-79
2022/12/02 11:40:06;;;;;;;29.53;16.40;;;3.10;99.90;;;;;;6325321;22;20431;-81
2022/12/02 11:42:34;;;;;;;29.17;14.03;;;3.20;99.90;;;;;;6305299;22;20833;-78
2022/12/02 11:45:13;;;;;;;30.20;14.77;;;3.40;99.90;;;;;;6301373;22;21189;-75
2022/12/02 11:47:42;;;;;;;29.70;15.47;;;3.50;99.90;;;;;;6301554;22;20987;-82
2022/12/02 11:50:21;;;;;;;29.97;15.00;;;3.30;99.90;;;;;;6305267;22;20412;-83
2022/12/02 11:52:51;;;;;;;26.33;16.20;;;3.40;99.90;;;;;;6300953;22;20558;-83
2022/12/02 11:55:20;;;;;;;23.20;13.70;;;3.50;99.90;;;;;;6300999;22;20643;-80
2022/12/02 11:57:49;;;;;;;25.97;13.60;;;3.30;99.90;;;;;;6303045;22;20491;-84
2022/12/02 12:00:28;;;;;;;26.40;14.60;;;3.20;99.90;;;;;;6300877;22;20412;-70
2022/12/02 12:03:11;;;;;;;27.43;14.33;;;3.30;99.90;;;;;;6300455;22;20469;-77
2022/12/02 12:05:39;;;;;;;23.67;13.53;;;3.60;99.90;;;;;;6302081;22;20389;-85
2022/12/02 12:08:06;;;;;;;26.50;14.03;;;3.70;99.90;;;;;;6300761;22;20400;-86
2022/12/02 12:10:34;;;;;;;29.60;16.40;;;3.80;99.90;;;;;;6300942;22;20824;-82
2022/12/02 12:13:28;;;;;;;28.30;15.90;;;3.50;99.90;;;;;;6315114;22;20397;-80
2022/12/02 12:16:00;;;;;;;34.80;16.33;;;3.20;99.90;;;;;;6243007;22;20420;-81
2022/12/02 12:18:44;;;;;;;29.50;15.97;;;3.10;99.90;;;;;;6318287;22;20621;-73
2022/12/02 12:21:12;;;;;;;29.43;14.83;;;3.10;99.90;;;;;;6302249;22;20446;-69
2022/12/02 12:23:41;;;;;;;27.00;13.97;;;3.30;99.90;;;;;;6302028;22;20447;-70
2022/12/02 12:26:09;;;;;;;29.57;15.53;;;3.40;99.90;;;;;;6302072;22;20729;-85
2022/12/02 12:28:37;;;;;;;25.23;15.47;;;3.60;99.90;;;;;;6302087;22;20928;-84
2022/12/02 12:31:06;;;;;;;24.43;15.00;;;3.70;99.90;;;;;;6301966;22;20754;-84
2022/12/02 12:33:33;;;;;;;29.03;15.90;;;3.80;99.90;;;;;;6302419;22;20488;-83
2022/12/02 12:36:02;;;;;;;24.37;15.67;;;3.90;99.90;;;;;;6301012;22;20415;-83
2022/12/02 12:38:30;;;;;;;22.87;14.53;;;4.00;99.90;;;;;;6302099;22;20403;-85
2022/12/02 12:40:57;;;;;;;22.13;13.10;;;3.90;99.90;;;;;;6301734;22;20409;-84
2022/12/02 12:43:24;;;;;;;25.60;15.30;;;3.70;99.90;;;;;;6301484;22;20448;-85
2022/12/02 12:45:51;;;;;;;25.60;15.63;;;3.50;99.90;;;;;;6302766;22;20409;-84
2022/12/02 12:48:18;;;;;;;30.47;16.63;;;3.50;99.90;;;;;;6301795;22;20491;-82
2022/12/02 12:50:45;;;;;;;39.50;18.77;;;3.40;99.90;;;;;;6302054;22;20542;-82
2022/12/02 12:53:13;;;;;;;36.77;17.87;;;3.20;99.90;;;;;;6302973;22;20405;-80
2022/12/02 12:55:40;;;;;;;35.73;19.33;;;3.20;99.90;;;;;;6302027;22;20423;-82
2022/12/02 12:58:07;;;;;;;35.43;18.10;;;3.40;99.90;;;;;;6302401;22;20742;-78
2022/12/02 13:00:34;;;;;;;40.67;22.03;;;3.40;99.90;;;;;;6297911;22;20853;-79
2022/12/02 13:03:01;;;;;;;38.13;20.20;;;3.80;99.90;;;;;;6295867;22;20508;-78
2022/12/02 13:05:28;;;;;;;33.70;19.23;;;3.30;99.90;;;;;;6299198;22;20413;-78
2022/12/02 13:07:55;;;;;;;39.03;18.67;;;2.90;99.90;;;;;;6300072;22;20611;-78
2022/12/02 13:10:24;;;;;;;46.47;20.40;;;2.80;99.90;;;;;;6299788;22;20447;-77
2022/12/02 13:12:51;;;;;;;37.07;19.37;;;2.70;99.90;;;;;;6299917;22;20405;-78
2022/12/02 13:15:18;;;;;;;34.07;19.80;;;2.90;99.90;;;;;;6298850;22;20758;-78
2022/12/02 13:17:45;;;;;;;35.17;17.87;;;3.00;99.90;;;;;;6298853;22;20496;-78
2022/12/02 13:20:14;;;;;;;34.93;19.80;;;3.10;99.90;;;;;;6298759;22;20440;-79
2022/12/02 13:22:42;;;;;;;30.80;17.63;;;3.20;99.90;;;;;;6296583;22;20444;-80
2022/12/02 13:25:10;;;;;;;37.07;18.90;;;3.10;99.90;;;;;;6298252;22;20416;-80
2022/12/02 13:27:38;;;;;;;35.20;20.23;;;3.20;99.90;;;;;;6298064;22;20422;-78
2022/12/02 13:30:08;;;;;;;37.77;18.10;;;3.20;99.90;;;;;;6295917;22;20953;-79
2022/12/02 13:32:35;;;;;;;39.17;18.73;;;3.20;99.90;;;;;;6298171;22;20411;-77
2022/12/02 13:35:02;;;;;;;41.50;19.80;;;3.20;99.90;;;;;;6297991;22;20408;-79
2022/12/02 13:37:29;;;;;;;36.13;19.70;;;3.40;99.90;;;;;;6297521;22;20412;-78
2022/12/02 13:39:56;;;;;;;37.23;20.10;;;3.30;99.90;;;;;;6297677;22;20949;-80
2022/12/02 13:42:25;;;;;;;33.60;18.20;;;3.30;99.90;;;;;;6298159;22;21120;-79
2022/12/02 13:45:33;;;;;;;33.47;16.53;;;3.30;99.90;;;;;;6295717;22;20490;-75
2022/12/02 13:48:51;;;;;;;34.70;17.90;;;3.30;99.90;;;;;;6302753;22;20560;-76
2022/12/02 13:51:56;;;;;;;38.20;19.53;;;3.30;99.90;;;;;;6299493;22;20988;-77
2022/12/02 14:08:50;;;;;;;31.03;18.00;;;3.40;99.90;;;;;;6202816;22;20495;-73
2022/12/02 14:11:18;;;;;;;34.13;18.03;;;3.20;99.90;;;;;;6294017;22;20493;-73
2022/12/02 14:13:45;;;;;;;33.10;17.50;;;2.80;99.90;;;;;;6297704;22;20984;-73
2022/12/02 14:16:12;;;;;;;33.63;17.50;;;2.90;99.90;;;;;;6297587;22;20764;-73
2022/12/02 14:18:39;;;;;;;35.20;17.80;;;3.00;99.90;;;;;;6297849;22;20531;-73
2022/12/02 14:21:07;;;;;;;38.03;20.23;;;2.70;99.90;;;;;;6298133;22;20408;-73
2022/12/02 14:23:34;;;;;;;33.17;18.93;;;2.60;99.90;;;;;;6297917;22;20472;-72
2022/12/02 14:26:03;;;;;;;38.83;18.70;;;2.70;99.90;;;;;;6297843;22;20451;-72
2022/12/02 14:28:32;;;;;;;36.40;18.47;;;2.90;99.90;;;;;;6297900;22;20412;-73
2022/12/02 14:31:00;;;;;;;39.50;19.67;;;2.60;99.90;;;;;;6296933;22;20412;-72
2022/12/02 14:33:27;;;;;;;37.37;18.80;;;2.50;99.90;;;;;;6297565;22;20418;-73
2022/12/02 14:35:56;;;;;;;34.27;19.23;;;2.40;99.90;;;;;;6297531;22;20416;-73
2022/12/02 14:38:24;;;;;;;35.67;17.60;;;2.40;99.90;;;;;;6297827;22;20404;-73
2022/12/02 14:40:51;;;;;;;38.77;19.87;;;2.60;99.90;;;;;;6299276;22;20420;-73
2022/12/02 14:43:20;;;;;;;28.83;17.50;;;2.40;99.90;;;;;;6303329;22;20847;-79
2022/12/02 14:45:46;;;;;;;38.90;18.40;;;2.20;99.90;;;;;;6303408;22;20446;-76
2022/12/02 14:48:14;;;;;;;36.87;20.00;;;2.30;99.90;;;;;;6300208;22;20420;-75
2022/12/02 14:50:52;;;;;;;34.83;18.00;;;2.30;99.90;;;;;;6298538;22;20909;-75
2022/12/02 14:53:19;;;;;;;37.27;18.03;;;2.20;99.90;;;;;;6298091;22;20901;-75
2022/12/02 14:55:46;;;;;;;30.73;17.13;;;2.40;99.90;;;;;;6298850;22;20794;-78
2022/12/02 14:58:13;;;;;;;31.93;18.27;;;2.50;99.90;;;;;;6301810;22;20420;-76
2022/12/02 15:00:42;;;;;;;42.03;18.20;;;2.60;99.90;;;;;;6300297;22;20409;-76
2022/12/02 15:03:09;;;;;;;31.60;17.60;;;2.70;99.90;;;;;;6298441;22;20451;-75
2022/12/02 15:05:36;;;;;;;40.03;16.03;;;2.70;99.90;;;;;;6299101;22;20418;-74
2022/12/02 15:08:03;;;;;;;36.73;16.70;;;2.70;99.90;;;;;;6298101;22;20405;-75
2022/12/02 15:10:37;;;;;;;26.67;14.17;;;2.80;99.90;;;;;;6297564;22;20460;-74
2022/12/02 15:13:04;;;;;;;28.73;14.80;;;2.70;99.90;;;;;;6297567;22;20442;-75
2022/12/02 15:15:31;;;;;;;34.27;16.07;;;2.80;99.90;;;;;;6297898;22;20412;-75
2022/12/02 15:17:59;;;;;;;35.73;16.90;;;2.70;99.90;;;;;;6297444;22;20885;-74
2022/12/02 15:20:26;;;;;;;31.83;17.20;;;2.70;99.90;;;;;;6297090;22;20515;-74
2022/12/02 15:22:53;;;;;;;25.73;16.47;;;2.70;99.90;;;;;;6297421;22;20432;-74